Marathon, Ohio
Current Conditions -  °F | °C
As of 7:54 AM on Wednesday 22 Oct 2014 (Local Time) from KILN Reporting Station
Clear Clear  
Wind Chill: 35°   Ceiling: Unl
Heat Index: 41°   Visibility: 10mi
Dew Point: 38°   Wind: 9mph
Humidity: 89%   Direction: 340°NNW
Pressure: 30.24"   Gusts: NA
Location:  39.14°N, 84.01°W
Report Text: KILN 221154Z AUTO 34008KT 10SM CLR 05/03 A3024 RMK AO2 SLP255 T00500033 10067 20050 53018
Loading
Personal Weather Stations






























Interactive Weather Map
Tropical Storm Tracking
New forecast layout! Learn more

10-Day Weather Forecast

Advertisements
Track Severe Weather on mobile